Time;durP1;ratioP1;P1;durP2;ratioP2;P2;SDS_P1;SDS_P2;PMS_P1;PMS_P2;Temp;Humidity;BMP_temperature;BMP_pressure;BME280_temperature;BME280_humidity;BME280_pressure;Samples;Min_cycle;Max_cycle;Signal;HPM_P1;HPM_P2
2020/12/22 00:02:12;;;;;;;13.85;9.60;;;23.00;46.60;;;;;;5009760;28;45260;-58
2020/12/22 00:04:38;;;;;;;12.77;9.73;;;23.00;46.60;;;;;;5009748;28;45247;-58
2020/12/22 00:07:03;;;;;;;12.23;9.23;;;23.00;46.70;;;;;;5026426;28;45431;-58
2020/12/22 00:09:29;;;;;;;13.57;10.40;;;23.00;46.70;;;;;;5026669;28;45588;-57
2020/12/22 00:11:54;;;;;;;13.10;10.32;;;23.00;46.80;;;;;;5026225;28;46451;-59
2020/12/22 00:14:20;;;;;;;13.10;10.02;;;22.90;46.80;;;;;;5026066;28;45387;-58
2020/12/22 00:16:46;;;;;;;12.68;9.88;;;22.90;46.80;;;;;;5009678;28;45386;-58
2020/12/22 00:19:12;;;;;;;11.60;9.18;;;22.90;46.80;;;;;;5026388;28;45288;-57
2020/12/22 00:21:37;;;;;;;14.35;10.02;;;22.90;46.80;;;;;;5009705;28;45431;-58
2020/12/22 00:24:03;;;;;;;13.85;10.23;;;22.90;46.80;;;;;;5025916;28;45257;-62
2020/12/22 00:26:29;;;;;;;12.40;10.02;;;22.90;46.90;;;;;;5009399;28;45276;-62
2020/12/22 00:28:54;;;;;;;13.52;10.25;;;22.80;47.20;;;;;;5011637;28;45624;-61
2020/12/22 00:31:20;;;;;;;10.75;9.15;;;22.80;47.50;;;;;;5012925;28;46352;-61
2020/12/22 00:33:46;;;;;;;12.77;9.63;;;22.80;47.50;;;;;;5029276;28;45351;-61
2020/12/22 00:36:11;;;;;;;16.10;10.18;;;22.80;47.40;;;;;;5028761;28;45620;-60
2020/12/22 00:38:37;;;;;;;12.20;9.35;;;22.80;47.40;;;;;;5013455;28;45457;-60
2020/12/22 00:41:03;;;;;;;13.52;10.20;;;22.80;48.00;;;;;;5012169;28;46219;-60
2020/12/22 00:43:28;;;;;;;11.27;9.40;;;22.80;47.40;;;;;;5013105;28;45395;-61
2020/12/22 00:45:54;;;;;;;13.68;10.32;;;22.70;47.40;;;;;;5012890;28;45324;-60
2020/12/22 00:48:20;;;;;;;13.25;10.65;;;22.70;47.40;;;;;;5013899;28;45333;-61
2020/12/22 00:50:45;;;;;;;11.65;9.40;;;22.70;47.40;;;;;;5032181;28;46885;-61
2020/12/22 00:53:11;;;;;;;14.20;10.40;;;22.70;47.50;;;;;;5032751;28;45353;-61
2020/12/22 00:55:36;;;;;;;11.32;8.95;;;22.70;47.40;;;;;;5032512;28;45296;-61
2020/12/22 00:58:02;;;;;;;12.63;9.18;;;22.60;47.40;;;;;;5032766;28;45305;-61
2020/12/22 01:00:28;;;;;;;13.68;9.52;;;22.70;47.50;;;;;;5032192;28;45954;-61
2020/12/22 01:02:53;;;;;;;11.88;9.40;;;22.70;47.50;;;;;;5032537;28;45622;-61
2020/12/22 01:05:19;;;;;;;13.07;9.27;;;22.60;47.40;;;;;;5032136;28;45424;-61
2020/12/22 01:07:45;;;;;;;13.48;9.27;;;22.60;47.50;;;;;;5033017;28;45474;-61
2020/12/22 01:10:10;;;;;;;11.50;8.98;;;22.60;47.40;;;;;;5032219;28;46093;-61
2020/12/22 01:12:36;;;;;;;11.57;8.88;;;22.60;47.40;;;;;;5032002;28;45269;-61
2020/12/22 01:15:02;;;;;;;11.45;8.68;;;22.60;47.50;;;;;;5048797;28;45689;-61
2020/12/22 01:17:28;;;;;;;13.15;9.82;;;22.60;47.50;;;;;;5049534;28;45213;-61
2020/12/22 01:19:54;;;;;;;11.68;8.90;;;22.60;47.50;;;;;;5048727;28;47280;-61
2020/12/22 01:22:19;;;;;;;12.07;9.77;;;22.60;47.50;;;;;;5048708;28;45459;-61
2020/12/22 01:24:45;;;;;;;12.15;9.07;;;22.60;47.50;;;;;;5048901;28;45347;-61
2020/12/22 01:27:11;;;;;;;11.45;9.25;;;22.50;47.50;;;;;;5049080;28;45368;-61
2020/12/22 01:29:36;;;;;;;13.23;8.77;;;22.50;47.50;;;;;;5048776;28;45344;-61
2020/12/22 01:32:02;;;;;;;11.20;9.02;;;22.50;47.50;;;;;;5048541;28;45358;-61
2020/12/22 01:34:28;;;;;;;11.35;8.70;;;22.50;47.50;;;;;;5048378;28;45437;-60
2020/12/22 01:36:53;;;;;;;12.40;9.02;;;22.50;47.50;;;;;;5049253;28;45422;-60
2020/12/22 01:39:19;;;;;;;11.70;9.43;;;22.50;47.50;;;;;;5048031;28;46979;-61
2020/12/22 01:41:45;;;;;;;10.38;8.32;;;22.50;47.60;;;;;;5047718;28;45325;-61
2020/12/22 01:44:12;;;;;;;10.77;8.73;;;22.50;47.60;;;;;;5048811;28;45296;-61
2020/12/22 01:46:42;;;;;;;12.95;9.70;;;22.50;47.60;;;;;;5048824;28;45376;-61
2020/12/22 01:49:14;;;;;;;10.82;8.40;;;22.50;47.60;;;;;;5044767;28;46142;-61
2020/12/22 01:51:44;;;;;;;12.43;9.35;;;22.40;47.50;;;;;;5028126;28;45413;-61
2020/12/22 01:54:09;;;;;;;10.27;8.82;;;22.50;47.60;;;;;;5028050;28;45321;-61
2020/12/22 01:56:38;;;;;;;10.75;8.25;;;22.40;47.50;;;;;;5028626;28;45398;-60
2020/12/22 01:59:04;;;;;;;11.27;8.80;;;22.50;47.60;;;;;;5028262;28;45963;-61
2020/12/22 02:01:33;;;;;;;11.65;8.50;;;22.40;47.50;;;;;;5027676;28;45387;-61
2020/12/22 02:03:59;;;;;;;10.52;8.77;;;22.40;47.60;;;;;;5028126;28;45271;-60
2020/12/22 02:06:28;;;;;;;11.10;8.88;;;22.40;47.60;;;;;;5028418;28;45249;-60
2020/12/22 02:08:54;;;;;;;12.75;9.02;;;22.40;47.60;;;;;;5027792;28;47008;-62
2020/12/22 02:11:30;;;;;;;10.38;8.48;;;22.40;47.60;;;;;;5027617;28;45335;-61
2020/12/22 02:13:56;;;;;;;12.73;9.70;;;22.40;47.60;;;;;;5028055;28;45360;-61
2020/12/22 02:16:21;;;;;;;11.13;8.60;;;22.40;47.60;;;;;;5028271;28;45390;-61
2020/12/22 02:18:48;;;;;;;10.27;8.88;;;22.40;47.60;;;;;;5027665;28;45399;-62
2020/12/22 02:21:13;;;;;;;11.57;9.02;;;22.30;47.60;;;;;;5027621;28;45307;-61
2020/12/22 02:23:39;;;;;;;11.20;8.30;;;22.30;47.60;;;;;;5027784;28;45307;-61
2020/12/22 02:26:05;;;;;;;11.27;9.13;;;22.30;47.60;;;;;;5027995;28;45319;-61
2020/12/22 02:28:31;;;;;;;10.95;8.05;;;22.30;47.60;;;;;;5011191;28;47193;-61
2020/12/22 02:30:57;;;;;;;10.68;8.40;;;22.30;47.60;;;;;;5027615;28;45316;-61
2020/12/22 02:33:22;;;;;;;11.73;8.63;;;22.30;47.60;;;;;;5027135;28;45265;-61
2020/12/22 02:35:48;;;;;;;8.95;7.38;;;22.30;47.60;;;;;;5027901;28;45221;-61
2020/12/22 02:38:17;;;;;;;11.18;8.95;;;22.30;47.60;;;;;;5027324;28;47022;-61
2020/12/22 02:40:42;;;;;;;10.63;8.60;;;22.30;47.60;;;;;;5027422;28;45346;-61
2020/12/22 02:43:10;;;;;;;10.23;8.25;;;22.30;47.60;;;;;;5027356;28;45311;-61
2020/12/22 02:45:36;;;;;;;10.60;7.97;;;22.30;47.60;;;;;;5027874;28;45546;-61
2020/12/22 02:48:02;;;;;;;10.63;8.48;;;22.30;47.60;;;;;;5027426;28;46410;-62
2020/12/22 02:50:28;;;;;;;12.27;8.70;;;22.30;47.60;;;;;;5045824;28;45457;-60
2020/12/22 02:52:53;;;;;;;11.43;9.00;;;22.30;47.60;;;;;;5030571;28;45497;-60
2020/12/22 02:55:19;;;;;;;10.57;8.73;;;22.30;47.50;;;;;;5047829;28;45343;-62
2020/12/22 02:57:44;;;;;;;12.13;8.63;;;22.30;47.50;;;;;;5030222;28;45518;-60
2020/12/22 03:00:10;;;;;;;10.13;8.30;;;22.30;47.60;;;;;;5030430;28;45351;-61
2020/12/22 03:02:36;;;;;;;11.70;8.88;;;22.30;47.60;;;;;;5030576;28;45396;-62
2020/12/22 03:05:01;;;;;;;11.63;8.18;;;22.30;47.60;;;;;;5031073;28;45490;-61
2020/12/22 03:07:27;;;;;;;11.80;8.98;;;22.30;47.40;;;;;;5030184;28;46190;-62
2020/12/22 03:09:53;;;;;;;10.45;8.27;;;22.40;47.30;;;;;;5030419;28;45463;-61
2020/12/22 03:12:18;;;;;;;10.13;8.00;;;22.40;47.20;;;;;;5048578;28;45542;-62
2020/12/22 03:14:44;;;;;;;10.55;8.20;;;22.50;47.10;;;;;;5030652;28;45359;-61
2020/12/22 03:17:09;;;;;;;10.73;8.63;;;22.50;47.00;;;;;;5030612;28;46189;-61
2020/12/22 03:19:37;;;;;;;10.02;8.05;;;22.50;46.90;;;;;;5030086;28;45289;-60
2020/12/22 03:22:06;;;;;;;11.23;8.55;;;22.50;46.80;;;;;;5030497;28;45372;-61
2020/12/22 03:24:32;;;;;;;10.93;8.07;;;22.50;46.80;;;;;;5031267;28;45400;-60
2020/12/22 03:26:58;;;;;;;10.02;7.93;;;22.60;46.80;;;;;;5030346;28;45388;-60
2020/12/22 03:29:23;;;;;;;10.98;8.35;;;22.60;46.70;;;;;;5029994;28;45347;-60
2020/12/22 03:31:49;;;;;;;10.45;8.10;;;22.60;46.60;;;;;;5046860;28;45418;-61
2020/12/22 03:34:14;;;;;;;9.82;7.68;;;22.70;46.60;;;;;;5030475;28;45577;-61
2020/12/22 03:36:40;;;;;;;11.20;9.10;;;22.70;46.50;;;;;;5029878;28;47109;-61
2020/12/22 03:39:06;;;;;;;10.70;8.15;;;22.80;46.50;;;;;;5029880;28;45356;-61
2020/12/22 03:41:31;;;;;;;9.60;7.32;;;22.80;46.50;;;;;;5029969;28;45439;-61
2020/12/22 03:43:57;;;;;;;10.63;7.53;;;22.80;46.40;;;;;;5030514;28;45454;-62
2020/12/22 03:46:23;;;;;;;9.63;7.20;;;22.80;46.30;;;;;;5029509;28;46083;-61
2020/12/22 03:48:49;;;;;;;11.45;8.45;;;22.90;46.30;;;;;;5025244;28;45369;-61
2020/12/22 03:51:15;;;;;;;11.00;8.05;;;22.90;46.30;;;;;;5026573;28;45571;-61
2020/12/22 03:53:40;;;;;;;9.73;7.68;;;22.90;46.50;;;;;;5010349;28;45360;-61
2020/12/22 03:56:06;;;;;;;10.32;7.95;;;22.90;46.50;;;;;;5026357;28;45336;-61
2020/12/22 03:58:32;;;;;;;10.63;7.00;;;23.00;46.40;;;;;;5009891;28;45277;-61
2020/12/22 04:00:58;;;;;;;10.55;7.78;;;23.00;46.40;;;;;;5010332;28;45462;-61
2020/12/22 04:03:25;;;;;;;10.18;7.60;;;23.00;46.30;;;;;;5009712;28;45344;-61
2020/12/22 04:05:51;;;;;;;9.35;7.63;;;23.00;46.30;;;;;;5026353;28;46541;-61
2020/12/22 04:08:17;;;;;;;9.35;7.55;;;23.00;46.30;;;;;;5009925;28;45238;-61
2020/12/22 04:10:42;;;;;;;9.93;7.57;;;23.00;46.30;;;;;;5025786;28;45324;-61
2020/12/22 04:13:08;;;;;;;8.95;6.70;;;23.10;46.40;;;;;;5026833;28;45297;-61
2020/12/22 04:15:34;;;;;;;9.15;6.85;;;23.10;46.40;;;;;;5009788;28;45888;-61
2020/12/22 04:17:59;;;;;;;8.13;6.82;;;23.10;46.40;;;;;;5025805;28;45452;-61
2020/12/22 04:20:25;;;;;;;9.40;7.57;;;23.10;46.30;;;;;;5009884;28;45367;-61
2020/12/22 04:22:51;;;;;;;9.45;6.70;;;23.10;46.30;;;;;;5010214;28;45516;-61
2020/12/22 04:25:16;;;;;;;9.63;6.75;;;23.10;46.20;;;;;;5009522;28;45349;-62
2020/12/22 04:27:42;;;;;;;7.70;6.40;;;23.10;46.20;;;;;;5009493;28;45441;-61
2020/12/22 04:30:08;;;;;;;11.63;7.53;;;23.20;46.20;;;;;;5009643;28;45616;-61
2020/12/22 04:32:33;;;;;;;9.77;7.55;;;23.20;46.20;;;;;;5010078;28;45459;-61
2020/12/22 04:34:59;;;;;;;9.20;7.20;;;23.20;46.20;;;;;;5008663;28;47208;-61
2020/12/22 04:37:25;;;;;;;9.00;6.82;;;23.20;46.10;;;;;;5025584;28;45303;-61
2020/12/22 04:39:51;;;;;;;8.90;6.93;;;23.20;46.10;;;;;;5027449;28;45266;-61
2020/12/22 04:42:17;;;;;;;9.23;7.45;;;23.20;46.10;;;;;;5027916;28;45298;-61
2020/12/22 04:44:42;;;;;;;10.02;7.28;;;23.30;46.10;;;;;;5009897;28;47212;-61
2020/12/22 04:47:09;;;;;;;9.25;6.78;;;23.20;46.10;;;;;;5009342;28;45313;-61
2020/12/22 04:49:35;;;;;;;9.30;7.10;;;23.30;46.10;;;;;;5020175;28;45329;-61
2020/12/22 04:52:01;;;;;;;10.90;7.85;;;23.30;46.10;;;;;;5029958;28;45468;-61
2020/12/22 04:54:26;;;;;;;9.15;7.30;;;23.30;46.10;;;;;;5029114;28;47278;-61
2020/12/22 04:56:52;;;;;;;10.27;7.63;;;23.30;45.90;;;;;;5029146;28;45353;-61
2020/12/22 04:59:18;;;;;;;8.40;6.45;;;23.30;46.00;;;;;;5029134;28;45431;-61
2020/12/22 05:01:43;;;;;;;10.05;6.85;;;23.30;46.10;;;;;;5029531;28;45372;-61
2020/12/22 05:04:11;;;;;;;7.78;6.30;;;23.30;46.00;;;;;;5045584;28;46572;-62
2020/12/22 05:06:36;;;;;;;10.90;7.28;;;23.30;46.00;;;;;;5045584;28;45355;-61
2020/12/22 05:09:02;;;;;;;9.88;7.25;;;23.40;46.00;;;;;;5045742;28;45433;-62
2020/12/22 05:11:28;;;;;;;9.02;6.97;;;23.40;45.90;;;;;;5046191;28;45342;-62
2020/12/22 05:13:54;;;;;;;9.65;6.95;;;23.40;46.00;;;;;;5045104;28;45462;-62
2020/12/22 05:16:28;;;;;;;11.05;7.47;;;23.40;45.90;;;;;;5047902;28;45343;-61
2020/12/22 05:18:57;;;;;;;10.70;7.22;;;23.40;45.90;;;;;;5049200;28;45490;-61
2020/12/22 05:21:23;;;;;;;9.82;6.47;;;23.40;45.90;;;;;;5049512;28;45561;-61
2020/12/22 05:23:50;;;;;;;9.10;6.25;;;23.40;45.80;;;;;;5048779;28;45976;-61
2020/12/22 05:26:20;;;;;;;8.60;6.50;;;23.40;45.80;;;;;;5048633;28;45286;-62
2020/12/22 05:28:46;;;;;;;8.35;6.65;;;23.40;45.70;;;;;;5050181;28;45274;-62
2020/12/22 05:31:15;;;;;;;8.10;6.18;;;23.40;45.80;;;;;;5046933;28;45529;-62
2020/12/22 05:33:46;;;;;;;9.40;7.40;;;23.40;45.80;;;;;;5048262;28;45340;-61
2020/12/22 05:36:12;;;;;;;9.88;6.78;;;23.40;45.70;;;;;;5025256;28;45455;-62
2020/12/22 05:38:38;;;;;;;9.25;6.60;;;23.40;45.70;;;;;;5027764;28;45556;-62
2020/12/22 05:41:05;;;;;;;9.05;6.68;;;23.40;45.70;;;;;;5017508;28;45794;-62
2020/12/22 05:43:40;;;;;;;8.00;6.05;;;23.40;45.70;;;;;;5027860;28;47065;-62
2020/12/22 05:46:06;;;;;;;7.25;5.72;;;23.40;45.60;;;;;;5028152;28;45386;-61
2020/12/22 05:48:32;;;;;;;8.40;6.90;;;23.40;45.70;;;;;;5034176;28;45407;-62
2020/12/22 05:51:01;;;;;;;9.30;7.32;;;23.40;45.70;;;;;;5032446;28;45308;-62
2020/12/22 05:53:27;;;;;;;9.13;6.65;;;23.40;45.70;;;;;;5035562;28;46222;-62
2020/12/22 05:55:53;;;;;;;8.80;6.35;;;23.40;45.70;;;;;;5026845;28;45418;-61
2020/12/22 05:58:18;;;;;;;11.05;7.50;;;23.40;45.60;;;;;;5031302;28;45291;-61
2020/12/22 06:00:44;;;;;;;9.27;6.95;;;23.50;45.60;;;;;;5043639;28;45356;-62
2020/12/22 06:03:11;;;;;;;9.60;7.53;;;23.50;45.50;;;;;;5027610;28;46936;-62
2020/12/22 06:05:41;;;;;;;8.75;6.95;;;23.50;45.40;;;;;;5011596;28;45327;-62
2020/12/22 06:08:08;;;;;;;10.25;7.63;;;23.50;45.30;;;;;;5028208;28;45314;-62
2020/12/22 06:10:35;;;;;;;10.73;7.70;;;23.50;45.30;;;;;;5028031;28;45550;-62
2020/12/22 06:13:00;;;;;;;10.38;6.72;;;23.50;45.30;;;;;;5027946;28;46360;-62
2020/12/22 06:15:26;;;;;;;8.90;7.38;;;23.50;45.30;;;;;;5031025;28;45285;-61
2020/12/22 06:17:52;;;;;;;8.77;6.25;;;23.50;45.30;;;;;;5031003;28;45367;-62
2020/12/22 06:20:20;;;;;;;10.27;6.38;;;23.50;45.50;;;;;;5048549;28;45209;-62
2020/12/22 06:22:45;;;;;;;10.52;6.15;;;23.60;45.50;;;;;;5031189;28;48201;-61
2020/12/22 06:25:11;;;;;;;9.82;7.22;;;23.60;45.50;;;;;;5028836;28;45331;-62
2020/12/22 06:27:37;;;;;;;10.32;6.97;;;23.60;45.50;;;;;;5030410;28;45346;-62
2020/12/22 06:30:03;;;;;;;10.50;7.60;;;23.70;45.50;;;;;;5047383;28;45830;-62
2020/12/22 06:32:29;;;;;;;13.45;8.60;;;23.70;45.40;;;;;;5030459;28;45367;-60
2020/12/22 06:35:15;;;;;;;13.52;8.88;;;23.70;45.30;;;;;;5030220;28;45510;-61
2020/12/22 06:37:42;;;;;;;13.50;7.97;;;23.70;45.30;;;;;;5047419;28;45291;-60
2020/12/22 06:40:07;;;;;;;11.52;7.78;;;23.70;45.60;;;;;;5030814;28;45443;-60
2020/12/22 06:42:39;;;;;;;14.65;9.55;;;23.70;45.60;;;;;;5030587;28;46031;-61
2020/12/22 06:45:24;;;;;;;14.02;8.48;;;23.70;45.50;;;;;;5041796;28;45496;-58
2020/12/22 06:47:50;;;;;;;12.02;8.50;;;23.80;45.70;;;;;;5036157;28;45639;-60
2020/12/22 06:50:37;;;;;;;13.73;9.18;;;23.80;45.60;;;;;;5020066;28;45445;-61
2020/12/22 06:53:04;;;;;;;18.42;9.48;;;23.80;45.90;;;;;;5037259;28;45343;-60
2020/12/22 06:55:49;;;;;;;20.65;9.05;;;23.80;45.70;;;;;;5016843;28;45495;-60
2020/12/22 06:58:41;;;;;;;15.35;9.38;;;23.80;45.70;;;;;;5035890;28;45451;-61
2020/12/22 07:01:26;;;;;;;17.15;9.85;;;23.80;45.80;;;;;;5052044;28;45323;-61
2020/12/22 07:04:10;;;;;;;19.40;9.65;;;23.80;45.90;;;;;;5037085;28;46320;-61
2020/12/22 07:06:49;;;;;;;17.55;10.00;;;23.70;45.90;;;;;;5035762;28;45404;-60
2020/12/22 07:09:34;;;;;;;21.55;10.50;;;23.70;45.90;;;;;;5034872;28;45288;-61
2020/12/22 07:12:09;;;;;;;14.77;9.63;;;23.70;45.90;;;;;;5037914;28;45402;-61
2020/12/22 07:14:55;;;;;;;15.40;9.35;;;23.60;45.90;;;;;;5035241;28;47389;-60
2020/12/22 07:17:21;;;;;;;20.60;9.80;;;23.70;46.00;;;;;;5037103;28;45574;-60
2020/12/22 07:19:48;;;;;;;21.33;11.15;;;23.60;45.90;;;;;;5017734;28;45478;-60
2020/12/22 07:22:15;;;;;;;17.67;10.23;;;23.60;45.80;;;;;;5022131;28;45602;-62
2020/12/22 07:24:40;;;;;;;23.50;10.60;;;23.60;45.80;;;;;;5026645;28;46422;-62
2020/12/22 07:27:07;;;;;;;17.23;11.07;;;23.60;45.80;;;;;;5026429;28;45552;-62
2020/12/22 07:29:36;;;;;;;17.85;10.63;;;23.60;45.60;;;;;;5065638;28;45229;-62
2020/12/22 07:32:01;;;;;;;18.92;9.77;;;23.60;45.60;;;;;;5047868;28;45398;-59
2020/12/22 07:34:27;;;;;;;23.25;11.85;;;23.70;45.80;;;;;;5043584;28;45490;-63
2020/12/22 07:37:06;;;;;;;17.48;10.32;;;23.70;45.50;;;;;;5044408;28;46399;-60
2020/12/22 07:39:32;;;;;;;17.25;9.80;;;23.80;45.40;;;;;;5040193;28;45651;-64
2020/12/22 07:42:10;;;;;;;16.67;9.52;;;23.90;45.60;;;;;;5028323;28;45458;-58
2020/12/22 07:44:36;;;;;;;17.65;10.10;;;23.90;45.90;;;;;;5036043;28;46890;-60
2020/12/22 07:47:02;;;;;;;19.48;11.32;;;23.90;45.70;;;;;;5010942;28;45291;-60
2020/12/22 07:49:27;;;;;;;15.82;10.25;;;24.00;45.70;;;;;;5016924;28;45438;-59
2020/12/22 07:51:53;;;;;;;22.55;11.45;;;24.00;45.60;;;;;;5046284;28;45378;-62
2020/12/22 07:54:19;;;;;;;16.73;10.40;;;24.10;45.60;;;;;;5028381;28;47147;-61
2020/12/22 07:56:45;;;;;;;19.92;10.45;;;24.10;45.50;;;;;;5021976;28;45326;-61
2020/12/22 07:59:15;;;;;;;17.15;11.07;;;24.10;45.50;;;;;;5025556;28;45635;-62
2020/12/22 08:01:41;;;;;;;19.30;12.85;;;24.10;45.30;;;;;;5045583;28;45381;-61
2020/12/22 08:04:14;;;;;;;17.27;11.38;;;24.00;44.90;;;;;;5041322;28;45413;-61
2020/12/22 08:06:40;;;;;;;27.95;12.43;;;24.00;44.70;;;;;;5029483;28;45645;-60
2020/12/22 08:09:06;;;;;;;19.73;12.70;;;24.00;44.90;;;;;;5014623;28;45377;-59
2020/12/22 08:11:32;;;;;;;18.23;12.15;;;24.10;44.90;;;;;;5019869;28;45415;-59
2020/12/22 08:13:57;;;;;;;16.77;11.52;;;24.10;44.90;;;;;;5034644;28;45500;-59
2020/12/22 08:16:23;;;;;;;15.52;10.45;;;24.20;44.90;;;;;;5016769;28;45340;-59
2020/12/22 08:18:49;;;;;;;16.55;10.13;;;24.20;44.80;;;;;;5023509;28;45407;-59
2020/12/22 08:21:16;;;;;;;17.77;10.68;;;24.20;44.80;;;;;;5020668;28;45288;-63
2020/12/22 08:23:42;;;;;;;14.75;9.77;;;24.30;44.90;;;;;;5021940;28;45490;-57
2020/12/22 08:26:09;;;;;;;15.73;9.45;;;24.30;45.00;;;;;;5018601;28;45505;-58
2020/12/22 08:28:35;;;;;;;14.13;9.45;;;24.40;45.10;;;;;;5018633;28;45436;-57
2020/12/22 08:31:15;;;;;;;13.63;9.25;;;24.50;45.30;;;;;;5017732;28;45476;-57
2020/12/22 08:33:41;;;;;;;13.93;8.13;;;24.50;45.40;;;;;;5034613;28;46249;-59
2020/12/22 08:36:13;;;;;;;12.63;8.70;;;24.60;45.40;;;;;;5018519;28;45391;-60
2020/12/22 08:38:38;;;;;;;15.45;9.45;;;24.70;45.80;;;;;;5039874;28;45336;-60
2020/12/22 08:41:15;;;;;;;14.65;9.10;;;24.80;45.30;;;;;;5041859;28;45514;-56
2020/12/22 08:43:51;;;;;;;13.88;9.35;;;24.80;45.20;;;;;;5025975;28;46278;-57
2020/12/22 08:46:17;;;;;;;14.65;8.60;;;24.90;45.10;;;;;;5019101;28;45343;-60
2020/12/22 08:48:43;;;;;;;12.15;8.35;;;24.90;45.10;;;;;;5016379;28;45339;-63
2020/12/22 08:51:09;;;;;;;15.32;8.60;;;24.90;45.10;;;;;;5044251;28;45522;-59
2020/12/22 08:53:35;;;;;;;13.18;8.30;;;25.00;45.10;;;;;;5054501;28;46932;-56
2020/12/22 08:56:08;;;;;;;17.23;9.55;;;25.00;45.10;;;;;;5040755;28;45445;-58
2020/12/22 08:58:34;;;;;;;15.35;9.70;;;24.90;44.80;;;;;;5026506;28;45420;-58
2020/12/22 09:01:16;;;;;;;20.45;10.63;;;24.80;45.00;;;;;;5020725;28;45477;-56
2020/12/22 09:03:50;;;;;;;17.88;10.77;;;24.80;45.00;;;;;;5039169;28;47164;-56
2020/12/22 09:06:15;;;;;;;16.13;9.63;;;24.70;44.70;;;;;;5034741;28;45435;-58
2020/12/22 09:08:41;;;;;;;13.82;9.50;;;24.70;44.80;;;;;;5037965;28;45441;-59
2020/12/22 09:11:17;;;;;;;14.02;9.25;;;24.70;44.90;;;;;;5019702;28;45598;-59
2020/12/22 09:13:43;;;;;;;14.23;9.48;;;24.70;44.90;;;;;;5037800;28;46377;-58
2020/12/22 09:16:08;;;;;;;14.50;8.73;;;24.70;45.00;;;;;;5023884;28;45801;-59
2020/12/22 09:18:34;;;;;;;12.48;8.52;;;24.70;45.00;;;;;;5023259;28;45471;-59
2020/12/22 09:21:01;;;;;;;14.20;7.80;;;24.70;45.60;;;;;;5018805;28;45466;-59
2020/12/22 09:23:27;;;;;;;11.18;8.30;;;24.70;45.10;;;;;;5036956;28;45308;-58
2020/12/22 09:25:53;;;;;;;14.60;9.10;;;24.70;45.10;;;;;;5020650;28;45845;-56
2020/12/22 09:28:21;;;;;;;15.13;9.20;;;24.80;45.10;;;;;;5023319;28;45487;-56
2020/12/22 09:30:47;;;;;;;15.20;7.93;;;24.70;45.30;;;;;;5019152;28;45641;-55
2020/12/22 09:33:13;;;;;;;11.88;8.13;;;24.70;45.40;;;;;;5019008;28;46119;-54
2020/12/22 09:35:38;;;;;;;11.25;7.97;;;24.80;45.50;;;;;;5017968;28;45514;-51
2020/12/22 09:38:04;;;;;;;11.95;8.60;;;24.70;45.70;;;;;;5018817;28;45394;-53
2020/12/22 09:40:30;;;;;;;13.88;8.50;;;24.70;46.00;;;;;;5034699;28;45925;-55
2020/12/22 09:42:55;;;;;;;11.18;8.43;;;24.70;45.80;;;;;;5017384;28;46840;-55
2020/12/22 09:45:21;;;;;;;13.30;8.15;;;24.70;45.70;;;;;;5035092;28;45399;-55
2020/12/22 09:47:47;;;;;;;10.20;7.57;;;24.70;45.60;;;;;;5035708;28;45482;-55
2020/12/22 09:50:12;;;;;;;11.75;8.32;;;24.70;45.60;;;;;;5025009;28;45479;-54
2020/12/22 09:52:38;;;;;;;16.38;10.00;;;24.70;45.70;;;;;;5022606;28;46191;-55
2020/12/22 09:55:03;;;;;;;24.33;10.30;;;24.70;45.70;;;;;;5020317;28;45499;-55
2020/12/22 09:57:29;;;;;;;20.40;9.75;;;24.70;45.90;;;;;;5035523;28;45467;-54
2020/12/22 09:59:55;;;;;;;21.75;11.10;;;24.70;45.80;;;;;;5019862;28;45439;-54
2020/12/22 10:02:21;;;;;;;46.33;18.92;;;24.70;45.80;;;;;;5020935;28;45465;-55
2020/12/22 10:04:46;;;;;;;54.63;23.58;;;24.60;44.70;;;;;;5016210;28;45526;-57
2020/12/22 10:07:12;;;;;;;46.13;20.48;;;24.40;43.50;;;;;;5027349;28;45459;-54
2020/12/22 10:09:38;;;;;;;36.92;20.80;;;24.30;42.20;;;;;;5038030;28;45355;-54
2020/12/22 10:12:03;;;;;;;39.63;20.90;;;24.30;41.70;;;;;;5038990;28;47143;-54
2020/12/22 10:14:29;;;;;;;33.40;18.85;;;24.30;40.80;;;;;;5034116;28;45435;-54
2020/12/22 10:16:55;;;;;;;35.20;19.83;;;24.20;40.50;;;;;;5027245;28;45490;-53
2020/12/22 10:19:20;;;;;;;43.63;22.55;;;24.10;40.20;;;;;;5019825;28;45381;-54
2020/12/22 10:21:46;;;;;;;52.10;24.98;;;24.10;40.20;;;;;;5021753;28;46968;-53
2020/12/22 10:24:11;;;;;;;59.35;29.05;;;24.00;40.10;;;;;;5034063;28;45685;-54
2020/12/22 10:26:37;;;;;;;58.47;28.73;;;23.90;40.10;;;;;;5029584;28;45371;-54
2020/12/22 10:29:03;;;;;;;65.97;27.55;;;23.80;40.30;;;;;;5028381;28;45464;-54
2020/12/22 10:31:28;;;;;;;58.95;25.52;;;23.70;40.40;;;;;;5032631;28;46159;-54
2020/12/22 10:33:58;;;;;;;47.47;25.48;;;23.60;40.40;;;;;;5021583;28;45796;-54
2020/12/22 10:36:24;;;;;;;49.53;23.38;;;23.60;40.10;;;;;;5017889;28;46433;-53
2020/12/22 10:38:54;;;;;;;52.13;24.23;;;23.60;40.00;;;;;;5018036;28;45615;-54
2020/12/22 10:41:20;;;;;;;52.55;25.92;;;23.60;39.90;;;;;;5023637;28;45984;-53
2020/12/22 10:43:50;;;;;;;52.38;23.67;;;23.50;39.90;;;;;;5015937;28;45454;-53
2020/12/22 10:46:15;;;;;;;44.13;23.13;;;23.50;39.80;;;;;;5022213;28;45534;-53
2020/12/22 10:48:45;;;;;;;45.38;22.75;;;23.40;40.00;;;;;;5036997;28;45547;-53
2020/12/22 10:51:11;;;;;;;44.75;22.10;;;23.40;39.70;;;;;;5032211;28;47315;-53
2020/12/22 10:53:37;;;;;;;59.65;23.95;;;23.30;40.20;;;;;;5015239;28;46283;-54
2020/12/22 10:56:03;;;;;;;56.03;24.75;;;23.40;41.30;;;;;;5024156;28;45442;-54
2020/12/22 10:58:28;;;;;;;47.35;21.95;;;23.40;41.60;;;;;;5026349;28;45622;-54
2020/12/22 11:00:54;;;;;;;58.25;21.50;;;23.50;42.10;;;;;;5045231;28;45706;-51
2020/12/22 11:03:20;;;;;;;58.83;23.60;;;23.40;42.50;;;;;;5021407;28;45448;-51
2020/12/22 11:08:41;;;;;;;73.43;28.20;;;23.40;44.50;;;;;;5021678;28;45570;-50
2020/12/22 11:11:07;;;;;;;90.07;32.78;;;23.40;44.40;;;;;;5034145;28;45716;-50
2020/12/22 11:13:34;;;;;;;100.25;38.00;;;23.40;44.80;;;;;;5020196;28;45815;-51
2020/12/22 11:15:59;;;;;;;120.30;40.13;;;23.40;45.30;;;;;;5024481;28;45297;-50
2020/12/22 11:18:25;;;;;;;92.10;37.17;;;23.40;46.00;;;;;;5013939;28;45601;-50
2020/12/22 11:20:51;;;;;;;86.68;34.40;;;23.30;46.00;;;;;;5029905;28;46996;-53
2020/12/22 11:23:16;;;;;;;100.90;35.08;;;23.30;45.90;;;;;;5026725;28;45387;-51
2020/12/22 11:25:42;;;;;;;85.07;35.38;;;23.30;45.90;;;;;;5027266;28;45280;-48
2020/12/22 11:28:07;;;;;;;82.00;32.60;;;23.30;46.10;;;;;;5048266;28;45304;-48
2020/12/22 11:30:33;;;;;;;89.93;34.38;;;23.30;45.90;;;;;;5029798;28;46232;-49
2020/12/22 11:32:59;;;;;;;87.47;35.50;;;23.30;45.70;;;;;;5046556;28;45263;-49
2020/12/22 11:35:24;;;;;;;88.05;34.63;;;23.30;46.20;;;;;;5046451;28;45491;-48
2020/12/22 11:37:50;;;;;;;85.80;33.47;;;23.30;45.60;;;;;;5030349;28;45561;-48
2020/12/22 11:40:16;;;;;;;77.72;31.35;;;23.20;45.60;;;;;;5028621;28;46210;-48
2020/12/22 11:42:41;;;;;;;89.40;36.20;;;23.20;45.50;;;;;;5028949;28;45432;-48
2020/12/22 11:45:07;;;;;;;91.57;36.72;;;23.20;45.60;;;;;;5046233;28;45464;-47
2020/12/22 11:47:33;;;;;;;88.07;35.08;;;23.10;46.20;;;;;;5030044;28;45641;-48
2020/12/22 11:49:59;;;;;;;74.30;32.83;;;23.10;45.90;;;;;;5029544;28;45408;-48
2020/12/22 11:52:24;;;;;;;70.22;30.67;;;23.10;45.80;;;;;;5030124;28;45791;-50
2020/12/22 11:54:50;;;;;;;72.68;30.42;;;23.00;45.70;;;;;;5037793;28;45455;-51
2020/12/22 11:57:16;;;;;;;70.38;30.98;;;23.00;45.70;;;;;;5034469;28;45454;-52
2020/12/22 11:59:41;;;;;;;68.15;33.05;;;22.90;45.70;;;;;;5048183;28;46651;-47
2020/12/22 12:02:07;;;;;;;67.35;30.23;;;22.90;45.70;;;;;;5043477;28;45599;-48
2020/12/22 12:04:33;;;;;;;68.07;31.00;;;22.90;45.80;;;;;;5024912;28;45606;-49
2020/12/22 12:06:58;;;;;;;77.15;30.92;;;22.90;46.20;;;;;;5043627;28;45599;-49
2020/12/22 12:09:24;;;;;;;75.93;32.08;;;22.90;46.50;;;;;;5042255;28;47134;-49
2020/12/22 12:11:50;;;;;;;64.25;29.00;;;22.90;46.60;;;;;;5025205;28;45514;-49
2020/12/22 12:14:17;;;;;;;63.47;28.95;;;22.90;46.80;;;;;;5025791;28;45366;-49
2020/12/22 12:16:48;;;;;;;70.07;29.48;;;22.90;47.00;;;;;;5026162;28;45439;-49
2020/12/22 12:19:14;;;;;;;65.07;29.92;;;22.90;47.30;;;;;;5043856;28;47221;-49
2020/12/22 12:21:40;;;;;;;66.40;31.00;;;22.80;47.30;;;;;;5030606;28;45677;-49
2020/12/22 12:24:06;;;;;;;73.22;31.02;;;22.80;47.40;;;;;;5048683;28;45676;-49
2020/12/22 12:26:31;;;;;;;68.13;30.13;;;22.80;47.60;;;;;;5053215;28;45621;-49
2020/12/22 12:28:57;;;;;;;70.65;30.95;;;22.80;47.60;;;;;;5034449;28;46260;-49
2020/12/22 12:31:24;;;;;;;71.78;30.00;;;22.70;47.70;;;;;;5031881;28;45617;-50
2020/12/22 12:33:50;;;;;;;67.43;29.70;;;22.70;47.70;;;;;;5032827;28;45328;-49
2020/12/22 12:36:16;;;;;;;66.45;28.13;;;22.70;47.70;;;;;;5032107;28;45515;-49
2020/12/22 12:38:42;;;;;;;69.10;29.85;;;22.70;47.70;;;;;;5032832;28;45362;-49